createdAt,value
2022-10-21T00:00:37.819Z,1.60
2022-10-21T00:03:05.159Z,1.95
2022-10-21T00:05:32.162Z,1.85
2022-10-21T00:07:59.092Z,1.88
2022-10-21T00:10:26.082Z,0.77
2022-10-21T00:12:52.916Z,0.95
2022-10-21T00:15:19.873Z,1.45
2022-10-21T00:17:46.838Z,2.08
2022-10-21T00:20:13.927Z,1.70
2022-10-21T00:22:41.223Z,1.33
2022-10-21T00:25:08.782Z,1.52
2022-10-21T00:27:36.380Z,1.27
2022-10-21T00:30:06.229Z,2.22
2022-10-21T00:32:33.718Z,1.25
2022-10-21T00:35:00.905Z,1.60
2022-10-21T00:37:30.689Z,1.58
2022-10-21T00:39:57.781Z,1.17
2022-10-21T00:42:32.915Z,0.93
2022-10-21T00:45:15.784Z,1.33
2022-10-21T00:50:58.217Z,1.70
2022-10-21T00:53:26.050Z,1.95
2022-10-21T00:56:04.286Z,1.33
2022-10-21T00:58:32.584Z,1.45
2022-10-21T01:01:01.902Z,1.20
2022-10-21T01:03:30.534Z,2.05
2022-10-21T01:06:00.610Z,1.35
2022-10-21T01:08:28.783Z,0.82
2022-10-21T01:10:56.487Z,1.88
2022-10-21T01:13:41.576Z,0.90
2022-10-21T01:16:17.361Z,1.27
2022-10-21T01:19:30.394Z,1.30
2022-10-21T01:22:02.716Z,1.33
2022-10-21T01:24:44.701Z,1.40
2022-10-21T01:27:30.454Z,1.00
2022-10-21T01:30:08.920Z,1.20
2022-10-21T01:32:50.498Z,1.35
2022-10-21T01:35:52.793Z,2.15
2022-10-21T01:38:22.634Z,2.08
2022-10-21T01:41:08.952Z,1.65
2022-10-21T01:44:06.533Z,0.75
2022-10-21T01:46:57.411Z,1.00
2022-10-21T01:49:30.800Z,1.23
2022-10-21T01:52:00.144Z,1.77
2022-10-21T01:54:33.329Z,1.23
2022-10-21T01:57:02.288Z,1.60
2022-10-21T01:59:31.475Z,1.20
2022-10-21T02:02:03.067Z,1.10
2022-10-21T02:04:33.987Z,0.90
2022-10-21T02:07:00.985Z,0.98
2022-10-21T02:09:27.954Z,0.98
2022-10-21T02:12:00.092Z,1.15
2022-10-21T02:14:37.093Z,1.13
2022-10-21T02:17:05.258Z,2.13
2022-10-21T02:22:22.626Z,0.65
2022-10-21T02:25:05.284Z,1.45
2022-10-21T02:27:32.499Z,1.48
2022-10-21T02:30:01.249Z,0.75
2022-10-21T02:32:37.481Z,1.45
2022-10-21T02:35:07.593Z,0.65
2022-10-21T02:37:51.359Z,4.30
2022-10-21T02:40:21.658Z,1.05
2022-10-21T02:42:54.339Z,1.10
2022-10-21T02:45:22.489Z,0.65
2022-10-21T02:47:50.786Z,0.50
2022-10-21T02:50:17.761Z,1.10
2022-10-21T02:52:44.620Z,0.95
2022-10-21T02:55:11.513Z,0.88
2022-10-21T02:57:38.585Z,0.63
2022-10-21T03:00:07.526Z,0.57
2022-10-21T03:02:34.635Z,0.50
2022-10-21T03:05:05.080Z,1.13
2022-10-21T03:07:31.920Z,0.80
2022-10-21T03:09:58.701Z,0.95
2022-10-21T03:12:25.514Z,0.52
2022-10-21T03:14:52.334Z,0.60
2022-10-21T03:17:21.596Z,0.70
2022-10-21T03:19:51.230Z,1.13
2022-10-21T03:22:18.046Z,2.20
2022-10-21T03:24:44.954Z,0.63
2022-10-21T03:27:11.740Z,1.60
2022-10-21T03:29:38.562Z,0.77
2022-10-21T03:32:05.681Z,0.93
2022-10-21T03:34:32.597Z,1.00
2022-10-21T03:36:59.536Z,1.45
2022-10-21T03:39:26.353Z,1.15
2022-10-21T03:41:53.124Z,0.60
2022-10-21T03:44:19.954Z,0.75
2022-10-21T03:46:46.730Z,0.95
2022-10-21T03:49:20.045Z,0.80
2022-10-21T03:51:48.467Z,0.90
2022-10-21T03:54:15.445Z,1.20
2022-10-21T03:56:42.501Z,1.40
2022-10-21T03:59:09.387Z,0.55
2022-10-21T04:01:36.622Z,1.25
2022-10-21T04:04:03.633Z,1.25
2022-10-21T04:06:30.425Z,0.63
2022-10-21T04:08:57.394Z,0.93
2022-10-21T04:11:24.261Z,0.73
2022-10-21T04:13:51.858Z,1.42
2022-10-21T04:16:21.346Z,0.70
2022-10-21T04:18:49.044Z,0.60
2022-10-21T04:21:16.131Z,1.23
2022-10-21T04:23:43.412Z,0.90
2022-10-21T04:26:10.516Z,0.70
2022-10-21T04:28:37.393Z,0.75
2022-10-21T04:31:04.321Z,0.73
2022-10-21T04:33:31.239Z,0.65
2022-10-21T04:35:59.351Z,0.93
2022-10-21T04:38:27.152Z,2.53
2022-10-21T04:41:02.723Z,3.33
2022-10-21T04:43:30.286Z,3.60
2022-10-21T04:45:57.100Z,1.13
2022-10-21T04:48:24.064Z,4.50
2022-10-21T04:50:52.709Z,2.95
2022-10-21T04:53:19.702Z,5.50
2022-10-21T04:55:50.185Z,2.72
2022-10-21T04:58:20.905Z,0.82
2022-10-21T05:00:49.709Z,2.17
2022-10-21T05:03:16.875Z,4.72
2022-10-21T05:05:43.890Z,0.90
2022-10-21T05:08:11.757Z,3.38
2022-10-21T05:10:38.899Z,1.70
2022-10-21T05:13:06.430Z,9.07
2022-10-21T05:15:33.869Z,5.13
2022-10-21T05:18:00.723Z,4.93
2022-10-21T05:20:27.989Z,6.25
2022-10-21T05:22:54.820Z,7.63
2022-10-21T05:25:23.022Z,4.47
2022-10-21T05:27:50.837Z,12.77
2022-10-21T05:30:17.747Z,6.03
2022-10-21T05:32:44.553Z,6.60
2022-10-21T05:35:12.359Z,2.65
2022-10-21T05:37:39.242Z,5.22
2022-10-21T05:40:07.133Z,3.80
2022-10-21T05:42:34.289Z,5.07
2022-10-21T05:45:01.068Z,6.45
2022-10-21T05:47:27.993Z,6.32
2022-10-21T05:49:54.908Z,4.03
2022-10-21T05:52:21.744Z,5.35
2022-10-21T05:54:48.802Z,7.13
2022-10-21T05:57:15.683Z,5.28
2022-10-21T05:59:42.596Z,5.40
2022-10-21T06:02:10.448Z,3.88
2022-10-21T06:04:38.832Z,2.10
2022-10-21T06:07:06.241Z,2.38
2022-10-21T06:09:33.315Z,4.13
2022-10-21T06:12:00.248Z,7.63
2022-10-21T06:14:27.356Z,4.38
2022-10-21T06:16:54.274Z,2.10
2022-10-21T06:19:21.075Z,2.67
2022-10-21T06:21:48.743Z,9.20
2022-10-21T06:24:16.362Z,3.17
2022-10-21T06:26:43.246Z,1.55
2022-10-21T06:29:10.246Z,4.05
2022-10-21T06:31:37.555Z,3.53
2022-10-21T06:34:04.559Z,5.80
2022-10-21T06:36:31.587Z,2.17
2022-10-21T06:38:58.621Z,4.15
2022-10-21T06:41:25.656Z,2.75
2022-10-21T06:43:52.618Z,4.97
2022-10-21T06:46:19.493Z,1.73
2022-10-21T06:48:46.490Z,2.17
2022-10-21T06:51:17.375Z,5.07
2022-10-21T06:53:44.745Z,4.82
2022-10-21T06:56:14.310Z,1.20
2022-10-21T06:58:46.718Z,4.03
2022-10-21T07:01:33.627Z,1.33
2022-10-21T07:04:03.724Z,2.28
2022-10-21T07:06:30.939Z,1.30
2022-10-21T07:08:58.991Z,1.33
2022-10-21T07:11:27.455Z,2.17
2022-10-21T07:13:54.646Z,3.40
2022-10-21T07:16:28.267Z,1.65
2022-10-21T07:18:55.514Z,1.10
2022-10-21T07:21:24.692Z,1.48
2022-10-21T07:23:54.737Z,2.83
2022-10-21T07:26:24.958Z,1.50
2022-10-21T07:28:52.701Z,1.85
2022-10-21T07:31:21.955Z,1.67
2022-10-21T07:33:49.200Z,1.02
2022-10-21T07:36:25.701Z,0.88
2022-10-21T07:38:55.042Z,1.50
2022-10-21T07:41:44.386Z,0.98
2022-10-21T07:44:11.954Z,1.80
2022-10-21T07:46:41.066Z,1.63
2022-10-21T07:49:09.053Z,1.30
2022-10-21T07:51:37.301Z,0.93
2022-10-21T07:54:05.004Z,2.08
2022-10-21T07:56:40.686Z,1.45
2022-10-21T07:59:12.589Z,1.50
2022-10-21T08:01:44.918Z,1.13
2022-10-21T08:04:14.512Z,1.73
2022-10-21T08:06:41.967Z,0.98
2022-10-21T08:09:09.096Z,0.80
2022-10-21T08:11:36.413Z,1.58
2022-10-21T08:14:07.187Z,0.90
2022-10-21T08:16:35.497Z,0.70
2022-10-21T08:19:05.339Z,1.40
2022-10-21T08:21:33.134Z,0.60
2022-10-21T08:24:03.063Z,1.23
2022-10-21T08:26:31.181Z,1.00
2022-10-21T08:31:45.549Z,1.58
2022-10-21T08:34:12.611Z,0.57
2022-10-21T08:36:40.179Z,0.80
2022-10-21T08:39:08.022Z,1.10
2022-10-21T08:41:57.725Z,1.30
2022-10-21T08:44:46.043Z,0.95
2022-10-21T08:47:13.234Z,1.35
2022-10-21T08:50:01.062Z,0.70
2022-10-21T08:52:42.863Z,1.20
2022-10-21T08:55:29.081Z,1.35
2022-10-21T08:57:56.181Z,0.60
2022-10-21T09:00:28.809Z,0.57
2022-10-21T09:03:18.544Z,1.40
2022-10-21T09:06:17.581Z,0.90
2022-10-21T09:09:03.279Z,0.55
2022-10-21T09:11:52.447Z,0.77
2022-10-21T09:14:37.500Z,0.73
2022-10-21T09:17:35.754Z,0.65
2022-10-21T09:20:34.567Z,0.50
2022-10-21T09:23:29.944Z,1.48
2022-10-21T09:26:01.698Z,0.85
2022-10-21T09:28:30.932Z,0.63
2022-10-21T09:31:00.974Z,0.60
2022-10-21T09:33:34.922Z,0.68
2022-10-21T09:36:48.071Z,0.40
2022-10-21T09:39:44.750Z,1.02
2022-10-21T09:42:29.231Z,0.50
2022-10-21T09:45:00.784Z,0.55
2022-10-21T09:47:27.792Z,0.80
2022-10-21T09:50:07.639Z,0.50
2022-10-21T09:52:37.758Z,0.70
2022-10-21T09:55:05.360Z,0.50
2022-10-21T09:57:52.036Z,0.80
2022-10-21T10:00:19.010Z,2.25
2022-10-21T10:02:47.150Z,0.90
2022-10-21T10:05:38.562Z,0.98
2022-10-21T10:10:50.747Z,1.10
2022-10-21T10:13:20.413Z,0.73
2022-10-21T10:15:47.504Z,0.68
2022-10-21T10:18:23.115Z,1.95
2022-10-21T10:21:11.303Z,2.20
2022-10-21T10:23:44.146Z,0.57
2022-10-21T10:26:12.020Z,0.73
2022-10-21T10:28:39.124Z,0.68
2022-10-21T10:31:07.050Z,0.73
2022-10-21T10:33:37.124Z,0.75
2022-10-21T10:36:09.379Z,0.73
2022-10-21T10:38:41.433Z,0.93
2022-10-21T10:41:11.503Z,1.35
2022-10-21T10:43:48.193Z,0.40
2022-10-21T10:46:20.953Z,0.52
2022-10-21T10:48:51.859Z,0.57
2022-10-21T10:51:32.694Z,0.55
2022-10-21T10:54:21.948Z,0.40
2022-10-21T10:56:57.523Z,0.55
2022-10-21T10:59:24.453Z,0.57
2022-10-21T11:02:09.832Z,0.50
2022-10-21T11:04:51.798Z,0.80
2022-10-21T11:07:44.665Z,0.60
2022-10-21T11:10:20.872Z,0.47
2022-10-21T11:12:47.816Z,0.47
2022-10-21T11:15:16.000Z,0.43
2022-10-21T11:17:53.320Z,0.60
2022-10-21T11:20:46.911Z,0.82
2022-10-21T11:23:45.527Z,0.50
2022-10-21T11:26:27.125Z,0.40
2022-10-21T11:29:06.587Z,0.50
2022-10-21T11:32:09.630Z,0.60
2022-10-21T11:34:58.806Z,0.75
2022-10-21T11:37:36.762Z,0.57
2022-10-21T11:40:16.158Z,0.40
2022-10-21T11:42:49.898Z,0.95
2022-10-21T11:45:22.845Z,0.57
2022-10-21T11:47:55.635Z,0.60
2022-10-21T11:50:41.309Z,1.27
2022-10-21T11:53:23.488Z,0.40
2022-10-21T11:56:02.181Z,1.42
2022-10-21T11:58:29.180Z,0.65
2022-10-21T12:01:10.729Z,0.52
2022-10-21T12:03:56.405Z,0.50
2022-10-21T12:06:55.486Z,1.30
2022-10-21T12:09:25.407Z,0.50
2022-10-21T12:12:00.621Z,0.63
2022-10-21T12:14:32.809Z,0.60
2022-10-21T12:17:02.207Z,1.02
2022-10-21T12:19:29.585Z,1.40
2022-10-21T12:21:56.842Z,1.15
2022-10-21T12:24:36.949Z,0.40
2022-10-21T12:27:04.464Z,1.02
2022-10-21T12:29:52.854Z,0.43
2022-10-21T12:32:23.033Z,0.80
2022-10-21T12:34:50.584Z,0.60
2022-10-21T12:37:48.558Z,0.47
2022-10-21T12:40:33.633Z,0.60
2022-10-21T12:43:03.085Z,0.88
2022-10-21T12:45:33.892Z,0.60
2022-10-21T12:48:01.957Z,1.30
2022-10-21T12:50:35.360Z,0.60
2022-10-21T12:53:05.601Z,0.65
2022-10-21T12:55:40.241Z,0.73
2022-10-21T12:58:27.217Z,0.65
2022-10-21T13:00:56.364Z,0.95
2022-10-21T13:03:45.788Z,0.60
2022-10-21T13:06:13.639Z,0.80
2022-10-21T13:08:53.898Z,1.10
2022-10-21T13:11:35.880Z,0.55
2022-10-21T13:14:17.745Z,8.90
2022-10-21T13:16:44.970Z,1.85
2022-10-21T13:19:35.557Z,1.02
2022-10-21T13:22:11.703Z,1.65
2022-10-21T13:24:39.680Z,2.10
2022-10-21T13:27:28.343Z,1.25
2022-10-21T13:29:56.615Z,1.63
2022-10-21T13:32:33.000Z,0.80
2022-10-21T13:35:02.614Z,2.60
2022-10-21T13:37:35.957Z,2.42
2022-10-21T13:40:07.924Z,1.73
2022-10-21T13:42:42.078Z,0.93
2022-10-21T13:45:29.899Z,1.33
2022-10-21T13:48:19.257Z,1.30
2022-10-21T13:50:48.609Z,1.42
2022-10-21T13:53:18.315Z,2.53
2022-10-21T13:55:56.224Z,2.08
2022-10-21T13:58:24.169Z,1.42
2022-10-21T14:00:56.348Z,1.75
2022-10-21T14:03:26.547Z,1.77
2022-10-21T14:05:59.558Z,1.80
2022-10-21T14:08:34.365Z,0.93
2022-10-21T14:11:14.638Z,1.70
2022-10-21T14:13:42.037Z,1.45
2022-10-21T14:16:09.863Z,0.88
2022-10-21T14:18:45.626Z,1.67
2022-10-21T14:21:21.390Z,0.88
2022-10-21T14:23:48.688Z,3.55
2022-10-21T14:26:15.958Z,2.88
2022-10-21T14:28:45.442Z,2.15
2022-10-21T14:31:14.253Z,1.02
2022-10-21T14:33:46.830Z,1.70
2022-10-21T14:36:20.095Z,2.58
2022-10-21T14:39:03.474Z,2.03
2022-10-21T14:41:37.367Z,1.25
2022-10-21T14:44:20.323Z,1.10
2022-10-21T14:46:50.135Z,1.20
2022-10-21T14:49:41.102Z,3.88
2022-10-21T14:52:09.460Z,2.00
2022-10-21T14:54:46.456Z,2.70
2022-10-21T14:57:32.004Z,1.25
2022-10-21T15:00:00.801Z,4.15
2022-10-21T15:02:34.672Z,2.15
2022-10-21T15:05:04.220Z,1.30
2022-10-21T15:07:32.867Z,3.83
2022-10-21T15:10:02.671Z,2.00
2022-10-21T15:12:50.946Z,2.55
2022-10-21T15:15:54.166Z,2.65
2022-10-21T15:18:29.285Z,2.45
2022-10-21T15:20:57.891Z,2.78
2022-10-21T15:23:29.942Z,6.50
2022-10-21T15:26:00.802Z,4.65
2022-10-21T15:28:35.142Z,2.45
2022-10-21T15:31:02.970Z,5.03
2022-10-21T15:33:30.540Z,2.60
2022-10-21T15:36:13.356Z,3.55
2022-10-21T15:38:47.870Z,5.57
2022-10-21T15:41:24.336Z,4.45
2022-10-21T15:43:59.157Z,4.22
2022-10-21T15:46:27.477Z,2.15
2022-10-21T15:48:54.470Z,3.00
2022-10-21T15:51:21.550Z,16.63
2022-10-21T15:53:48.458Z,10.05
2022-10-21T15:56:17.395Z,9.13
2022-10-21T15:58:44.800Z,8.63
2022-10-21T16:01:14.235Z,15.90
2022-10-21T16:03:42.005Z,9.05
2022-10-21T16:06:16.804Z,8.18
2022-10-21T16:08:43.870Z,6.40
2022-10-21T16:11:18.950Z,13.68
2022-10-21T16:13:53.151Z,10.10
2022-10-21T16:16:25.098Z,9.95
2022-10-21T16:18:53.593Z,11.15
2022-10-21T16:21:22.508Z,11.57
2022-10-21T16:23:54.384Z,6.38
2022-10-21T16:26:27.904Z,8.32
2022-10-21T16:28:57.995Z,9.27
2022-10-21T16:31:27.316Z,12.07
2022-10-21T16:33:54.561Z,24.45
2022-10-21T16:36:24.743Z,10.25
2022-10-21T16:38:52.844Z,15.65
2022-10-21T16:41:25.686Z,12.45
2022-10-21T16:43:52.611Z,9.15
2022-10-21T16:46:24.899Z,11.98
2022-10-21T16:48:52.917Z,12.20
2022-10-21T16:51:24.380Z,13.15
2022-10-21T16:53:51.355Z,9.10
2022-10-21T16:56:18.342Z,10.88
2022-10-21T16:58:45.435Z,22.92
2022-10-21T17:01:21.976Z,14.73
2022-10-21T17:03:49.061Z,9.02
2022-10-21T17:06:22.181Z,16.67
2022-10-21T17:08:51.011Z,12.57
2022-10-21T17:11:21.780Z,15.15
2022-10-21T17:13:49.333Z,10.32
2022-10-21T17:16:16.629Z,10.00
2022-10-21T17:18:44.939Z,13.27
2022-10-21T17:21:32.063Z,8.02
2022-10-21T17:24:01.337Z,10.35
2022-10-21T17:26:30.408Z,9.35
2022-10-21T17:28:58.338Z,14.07
2022-10-21T17:31:27.908Z,8.07
2022-10-21T17:34:07.758Z,12.52
2022-10-21T17:36:38.068Z,6.68
2022-10-21T17:39:05.704Z,11.33
2022-10-21T17:41:33.005Z,11.07
2022-10-21T17:44:02.048Z,8.75
2022-10-21T17:46:29.149Z,10.48
2022-10-21T17:48:57.794Z,8.07
2022-10-21T17:51:25.887Z,11.02
2022-10-21T17:53:54.518Z,12.45
2022-10-21T17:56:21.947Z,12.70
2022-10-21T17:58:56.909Z,7.13
2022-10-21T18:01:25.917Z,11.35
2022-10-21T18:03:53.470Z,11.88
2022-10-21T18:06:21.584Z,14.05
2022-10-21T18:08:48.768Z,11.25
2022-10-21T18:11:18.764Z,12.48
2022-10-21T18:13:46.779Z,15.73
2022-10-21T18:16:19.963Z,9.68
2022-10-21T18:18:48.310Z,20.67
2022-10-21T18:21:17.914Z,16.27
2022-10-21T18:23:47.296Z,16.20
2022-10-21T18:26:20.752Z,13.80
2022-10-21T18:28:57.488Z,15.65
2022-10-21T18:31:28.419Z,12.00
2022-10-21T18:33:56.638Z,12.68
2022-10-21T18:36:24.834Z,10.43
2022-10-21T18:38:51.756Z,11.88
2022-10-21T18:41:21.134Z,12.00
2022-10-21T18:43:54.409Z,10.93
2022-10-21T18:46:22.141Z,14.38
2022-10-21T18:48:49.499Z,23.48
2022-10-21T18:51:17.388Z,12.48
2022-10-21T18:53:47.258Z,12.98
2022-10-21T18:56:19.745Z,12.45
2022-10-21T18:58:47.797Z,12.35
2022-10-21T19:01:18.029Z,15.70
2022-10-21T19:03:46.247Z,14.70
2022-10-21T19:06:39.248Z,14.70
2022-10-21T19:09:18.995Z,17.23
2022-10-21T19:11:47.156Z,10.77
2022-10-21T19:14:15.231Z,12.35
2022-10-21T19:16:44.509Z,15.20
2022-10-21T19:19:11.636Z,11.18
2022-10-21T19:21:40.431Z,12.38
2022-10-21T19:24:08.249Z,10.57
2022-10-21T19:26:38.170Z,15.07
2022-10-21T19:29:15.115Z,11.82
2022-10-21T19:31:43.702Z,14.35
2022-10-21T19:34:16.984Z,12.00
2022-10-21T19:36:44.215Z,11.35
2022-10-21T19:39:11.676Z,11.23
2022-10-21T19:41:38.824Z,15.23
2022-10-21T19:44:06.127Z,12.25
2022-10-21T19:46:35.466Z,11.65
2022-10-21T19:49:04.722Z,15.10
2022-10-21T19:51:31.991Z,9.98
2022-10-21T19:53:59.190Z,15.68
2022-10-21T19:56:29.566Z,12.10
2022-10-21T19:59:00.081Z,9.18
2022-10-21T20:01:27.412Z,12.88
2022-10-21T20:03:55.750Z,9.07
2022-10-21T20:06:26.288Z,7.35
2022-10-21T20:08:58.862Z,7.03
2022-10-21T20:11:27.130Z,7.35
2022-10-21T20:13:55.761Z,6.78
2022-10-21T20:16:28.873Z,7.70
2022-10-21T20:18:57.231Z,5.50
2022-10-21T20:21:28.290Z,6.35
2022-10-21T20:23:58.320Z,5.20
2022-10-21T20:26:26.465Z,4.68
2022-10-21T20:28:54.056Z,4.93
2022-10-21T20:31:21.752Z,5.38
2022-10-21T20:33:51.315Z,4.18
2022-10-21T20:36:24.479Z,4.25
2022-10-21T20:38:52.888Z,8.75
2022-10-21T20:41:23.644Z,6.30
2022-10-21T20:43:52.194Z,5.50
2022-10-21T20:46:21.751Z,5.03
2022-10-21T20:48:50.654Z,5.43
2022-10-21T20:51:23.567Z,5.10
2022-10-21T20:53:54.762Z,6.43
2022-10-21T20:56:27.129Z,5.60
2022-10-21T20:58:54.713Z,3.88
2022-10-21T21:01:26.141Z,3.83
2022-10-21T21:03:55.656Z,4.70
2022-10-21T21:06:23.167Z,5.78
2022-10-21T21:09:08.545Z,8.25
2022-10-21T21:11:38.320Z,4.15
2022-10-21T21:14:05.692Z,4.18
2022-10-21T21:16:33.088Z,3.88
2022-10-21T21:19:04.266Z,4.95
2022-10-21T21:24:00.722Z,4.32
2022-10-21T21:26:34.752Z,3.70
2022-10-21T21:29:02.195Z,5.18
2022-10-21T21:31:31.448Z,4.97
2022-10-21T21:33:59.433Z,8.20
2022-10-21T21:36:27.514Z,4.53
2022-10-21T21:38:54.876Z,4.93
2022-10-21T21:41:24.403Z,4.82
2022-10-21T21:43:53.093Z,5.07
2022-10-21T21:46:24.720Z,4.30
2022-10-21T21:49:03.876Z,3.72
2022-10-21T21:51:33.226Z,3.50
2022-10-21T21:54:00.219Z,3.95
2022-10-21T21:56:28.355Z,4.90
2022-10-21T21:58:58.176Z,3.65
2022-10-21T22:01:28.377Z,3.47
2022-10-21T22:03:55.947Z,10.48
2022-10-21T22:08:53.584Z,3.00
2022-10-21T22:11:23.411Z,3.20
2022-10-21T22:13:50.508Z,2.90
2022-10-21T22:16:18.988Z,3.83
2022-10-21T22:18:46.174Z,3.13
2022-10-21T22:21:15.820Z,2.97
2022-10-21T22:23:43.683Z,3.28
2022-10-21T22:26:12.273Z,4.10
2022-10-21T22:28:39.659Z,3.00
2022-10-21T22:31:09.550Z,2.80
2022-10-21T22:33:37.434Z,2.70
2022-10-21T22:36:05.364Z,2.75
2022-10-21T22:38:32.745Z,3.00
2022-10-21T22:41:01.664Z,3.67
2022-10-21T22:43:29.147Z,2.80
2022-10-21T22:46:05.149Z,2.58
2022-10-21T22:48:42.341Z,3.05
2022-10-21T22:51:09.409Z,3.25
2022-10-21T22:53:37.876Z,3.10
2022-10-21T22:56:05.103Z,3.83
2022-10-21T22:58:31.995Z,3.88
2022-10-21T23:00:58.895Z,5.45
2022-10-21T23:03:26.009Z,5.35
2022-10-21T23:05:53.171Z,3.80
2022-10-21T23:08:20.190Z,3.83
2022-10-21T23:10:49.944Z,3.78
2022-10-21T23:13:17.195Z,4.38
2022-10-21T23:15:44.636Z,4.35
2022-10-21T23:18:11.523Z,4.80
2022-10-21T23:20:38.757Z,5.28
2022-10-21T23:23:05.889Z,4.15
2022-10-21T23:25:33.351Z,4.45
2022-10-21T23:28:00.157Z,4.85
2022-10-21T23:30:27.374Z,5.00
2022-10-21T23:32:54.357Z,5.53
2022-10-21T23:35:21.721Z,5.30
2022-10-21T23:37:48.554Z,5.85
2022-10-21T23:40:15.544Z,5.03
2022-10-21T23:42:43.076Z,5.22
2022-10-21T23:45:11.688Z,5.10
2022-10-21T23:47:40.202Z,6.88
2022-10-21T23:50:08.933Z,5.75
2022-10-21T23:52:36.545Z,5.22
2022-10-21T23:55:05.107Z,5.10
2022-10-21T23:57:32.105Z,5.22
2022-10-21T23:59:59.017Z,5.93
